Airfield :
LOGIN :

Register | Disclaimer

   EN    FR    IT 

 










Legend :    VFR   Marginal VFR   IFR   Intensive IFR   Very Intensive IFR
Visi :
Ceiling :
>= 8 km
>= 3000ft
5 to 8 km
1000 to 3000 ft
1500m to 5 km
500 to 1000 ft
800 to 1500m
200 to 500 ft
< 800m
< 200 ft
Symbols :   Thunderstorms  Fog  Heavy snow  Heavy precipitations  Wind > 20 kt
SIGMETs :     Misc.  Thunderstorms  Icing  Turbulence  Mountain Waves  Volcanic Ashes







- Airport Elevation : 274 ft
- IATA code : PUY


LDPL - Pula

CURRENT METAR :
  • 211330Z 07015KT 040V100 CAVOK 31/18 Q1017 NOSIG

EXPIRED METARs :
  • 211300Z 07014KT CAVOK 31/19 Q1017 NOSIG
  • 211230Z 08015KT CAVOK 30/19 Q1017 NOSIG
  • 211200Z 09015KT CAVOK 31/19 Q1018 NOSIG
  • 211130Z 09014KT 050V120 CAVOK 30/19 Q1018 NOSIG
  • 211100Z 10014KT CAVOK 31/19 Q1018 NOSIG

TAF TAF LDPL
Valid from the 21 at 12:00 until the 22 at 12:00 UTC


211125Z 2112/2212 07015KT CAVOK TX31/2112Z TN21/2204Z
PROB30
TEMPO 2112/2204 07020G30KT
PROB30
TEMPO 2202/2208 TSRA FEW040CB BKN045
BECMG 2210/2212 06008KT
No reported NOTAMs for that airfield.



MET'MAP, your aeronautical weather chart ! - Copyright ORBIFLY December 2007 - Disclaimer

ORBIFLY MET'MAP TEAM :

Programming & Development : Alexandra Zaïnal
Concept & Development : Baudouin d'Aumeries
Co-Development & Prog : Marc-Olivier Méhu
Technical & hardware support : Manuel Goepfert

Contact : metmap@orbifly.com




SOURCES & CREDITS :

   NOAA